createdAt,value
2017-08-29T00:02:45.885Z,20.59
2017-08-29T00:07:47.827Z,20.58
2017-08-29T00:12:50.188Z,20.44
2017-08-29T00:17:52.144Z,20.31
2017-08-29T00:22:54.964Z,20.24
2017-08-29T00:27:57.548Z,20.18
2017-08-29T00:32:59.496Z,20.07
2017-08-29T00:38:02.210Z,20.01
2017-08-29T00:43:04.621Z,19.97
2017-08-29T00:48:07.247Z,19.93
2017-08-29T00:53:09.605Z,19.91
2017-08-29T00:58:11.691Z,19.81
2017-08-29T01:03:14.345Z,19.85
2017-08-29T01:08:16.863Z,19.86
2017-08-29T01:13:19.280Z,19.88
2017-08-29T01:18:22.819Z,19.70
2017-08-29T01:23:25.960Z,19.65
2017-08-29T01:28:28.815Z,19.53
2017-08-29T01:33:30.862Z,19.57
2017-08-29T01:38:33.654Z,19.66
2017-08-29T01:43:35.678Z,19.73
2017-08-29T01:48:38.499Z,19.70
2017-08-29T01:53:42.399Z,19.62
2017-08-29T01:58:45.122Z,19.54
2017-08-29T02:03:47.219Z,19.53
2017-08-29T02:08:49.883Z,19.46
2017-08-29T02:13:52.609Z,19.40
2017-08-29T02:18:54.625Z,19.33
2017-08-29T02:23:57.380Z,19.22
2017-08-29T02:28:59.298Z,19.15
2017-08-29T02:34:01.891Z,19.09
2017-08-29T02:39:03.904Z,18.90
2017-08-29T02:44:06.439Z,18.95
2017-08-29T02:49:08.888Z,18.87
2017-08-29T02:54:11.997Z,18.84
2017-08-29T02:59:13.959Z,18.72
2017-08-29T03:04:16.081Z,18.72
2017-08-29T03:09:18.458Z,18.78
2017-08-29T03:14:21.143Z,18.77
2017-08-29T03:19:23.714Z,18.77
2017-08-29T03:24:26.376Z,18.80
2017-08-29T03:29:28.669Z,18.74
2017-08-29T03:34:31.490Z,18.65
2017-08-29T03:39:33.833Z,18.62
2017-08-29T03:44:36.514Z,18.58
2017-08-29T03:49:39.159Z,18.66
2017-08-29T03:54:43.974Z,18.67
2017-08-29T03:59:49.360Z,18.77
2017-08-29T04:04:52.333Z,18.80
2017-08-29T04:09:54.490Z,18.80
2017-08-29T04:14:57.243Z,18.82
2017-08-29T04:20:00.041Z,18.82
2017-08-29T04:25:03.414Z,18.82
2017-08-29T04:30:05.857Z,18.83
2017-08-29T04:35:08.453Z,18.87
2017-08-29T04:40:11.152Z,18.88
2017-08-29T04:45:13.783Z,18.83
2017-08-29T04:50:16.267Z,18.77
2017-08-29T04:55:18.303Z,18.65
2017-08-29T05:00:20.371Z,18.80
2017-08-29T05:05:22.817Z,19.00
2017-08-29T05:10:28.932Z,19.12
2017-08-29T05:15:31.466Z,19.29
2017-08-29T05:20:33.665Z,19.36
2017-08-29T05:25:36.041Z,19.49
2017-08-29T05:30:37.976Z,19.59
2017-08-29T05:35:40.038Z,19.68
2017-08-29T05:40:42.122Z,19.91
2017-08-29T05:45:44.149Z,20.20
2017-08-29T05:50:46.642Z,20.47
2017-08-29T05:55:48.845Z,20.75
2017-08-29T06:00:51.018Z,21.01
2017-08-29T06:05:53.109Z,21.26
2017-08-29T06:10:55.264Z,21.42
2017-08-29T06:15:57.405Z,21.43
2017-08-29T06:20:59.929Z,21.49
2017-08-29T06:26:02.005Z,21.63
2017-08-29T06:31:12.407Z,21.83
2017-08-29T06:36:15.642Z,22.00
2017-08-29T06:41:18.856Z,22.08
2017-08-29T06:46:21.065Z,22.40
2017-08-29T06:51:23.419Z,22.68
2017-08-29T06:56:26.527Z,22.86
2017-08-29T07:01:30.588Z,23.01
2017-08-29T07:06:35.268Z,23.24
2017-08-29T07:11:43.373Z,23.35
2017-08-29T07:16:48.151Z,23.51
2017-08-29T07:21:50.934Z,23.71
2017-08-29T07:26:53.233Z,23.92
2017-08-29T07:32:01.385Z,24.20
2017-08-29T07:37:03.557Z,24.38
2017-08-29T07:42:06.693Z,24.62
2017-08-29T07:47:09.892Z,24.86
2017-08-29T07:52:12.755Z,25.01
2017-08-29T07:57:21.932Z,25.20
2017-08-29T08:02:29.770Z,25.40
2017-08-29T08:07:37.881Z,25.67
2017-08-29T08:12:46.449Z,25.92
2017-08-29T08:17:49.308Z,26.04
2017-08-29T08:22:52.798Z,26.29
2017-08-29T08:28:02.364Z,26.47
2017-08-29T08:33:04.776Z,26.61
2017-08-29T08:38:07.313Z,26.77
2017-08-29T08:43:10.556Z,26.89
2017-08-29T08:48:12.523Z,27.12
2017-08-29T08:53:14.541Z,27.21
2017-08-29T08:58:16.516Z,27.31
2017-08-29T09:03:18.509Z,27.49
2017-08-29T09:08:20.485Z,27.74
2017-08-29T09:13:22.416Z,28.03
2017-08-29T09:18:24.348Z,28.23
2017-08-29T09:23:26.332Z,28.24
2017-08-29T09:28:28.253Z,28.47
2017-08-29T09:33:30.265Z,28.57
2017-08-29T09:38:32.296Z,28.78
2017-08-29T09:43:35.012Z,28.74
2017-08-29T09:48:37.228Z,28.90
2017-08-29T09:53:39.230Z,28.90
2017-08-29T09:58:41.255Z,29.01
2017-08-29T10:03:43.260Z,29.12
2017-08-29T10:08:45.627Z,29.09
2017-08-29T10:13:47.651Z,29.29
2017-08-29T10:18:49.634Z,29.38
2017-08-29T10:23:51.623Z,29.53
2017-08-29T10:28:53.574Z,29.59
2017-08-29T10:33:55.531Z,29.70
2017-08-29T10:38:57.577Z,29.87
2017-08-29T10:43:59.542Z,29.86
2017-08-29T10:49:01.499Z,29.94
2017-08-29T10:54:03.793Z,30.11
2017-08-29T10:59:06.023Z,30.20
2017-08-29T11:04:08.236Z,30.37
2017-08-29T11:09:10.423Z,30.44
2017-08-29T11:14:12.387Z,30.64
2017-08-29T11:19:16.464Z,30.73
2017-08-29T11:24:21.783Z,30.80
2017-08-29T11:29:28.938Z,30.77
2017-08-29T11:34:31.256Z,30.82
2017-08-29T11:39:33.612Z,30.88
2017-08-29T11:44:35.923Z,31.05
2017-08-29T11:49:37.952Z,31.13
2017-08-29T11:54:40.052Z,31.17
2017-08-29T11:59:42.151Z,31.28
2017-08-29T12:04:44.537Z,31.31
2017-08-29T12:09:46.511Z,31.39
2017-08-29T12:14:48.418Z,31.34
2017-08-29T12:19:50.405Z,31.54
2017-08-29T12:24:52.393Z,31.59
2017-08-29T12:29:54.362Z,31.60
2017-08-29T12:34:56.344Z,31.79
2017-08-29T12:39:58.320Z,31.98
2017-08-29T12:45:00.316Z,32.08
2017-08-29T12:50:02.273Z,31.91
2017-08-29T12:55:04.278Z,32.10
2017-08-29T13:00:06.312Z,32.15
2017-08-29T13:05:08.315Z,32.32
2017-08-29T13:10:10.255Z,32.37
2017-08-29T13:15:12.241Z,32.45
2017-08-29T13:20:14.226Z,32.54
2017-08-29T13:25:16.896Z,32.49
2017-08-29T13:30:18.891Z,32.63
2017-08-29T13:35:21.019Z,32.51
2017-08-29T13:40:23.367Z,32.49
2017-08-29T13:45:25.779Z,32.57
2017-08-29T13:50:27.770Z,32.42
2017-08-29T13:55:33.887Z,32.38
2017-08-29T14:00:35.932Z,32.50
2017-08-29T14:05:38.270Z,32.59
2017-08-29T14:10:41.129Z,32.75
2017-08-29T14:15:43.091Z,32.73
2017-08-29T14:20:45.070Z,32.70
2017-08-29T14:25:47.025Z,32.82
2017-08-29T14:30:48.971Z,33.14
2017-08-29T14:35:50.996Z,33.33
2017-08-29T14:40:52.935Z,33.37
2017-08-29T14:45:54.877Z,33.41
2017-08-29T14:50:56.927Z,33.47
2017-08-29T14:55:59.026Z,33.27
2017-08-29T15:01:01.079Z,33.48
2017-08-29T15:06:03.079Z,33.69
2017-08-29T15:11:05.121Z,33.67
2017-08-29T15:16:07.095Z,33.78
2017-08-29T15:21:09.075Z,33.67
2017-08-29T15:26:11.344Z,33.72
2017-08-29T15:31:13.326Z,33.75
2017-08-29T15:36:15.372Z,33.90
2017-08-29T15:41:17.685Z,33.83
2017-08-29T15:46:19.672Z,33.82
2017-08-29T15:51:21.855Z,33.99
2017-08-29T15:56:23.798Z,33.96
2017-08-29T16:01:25.743Z,33.83
2017-08-29T16:06:27.969Z,33.82
2017-08-29T16:11:30.013Z,33.69
2017-08-29T16:16:32.100Z,33.74
2017-08-29T16:21:34.581Z,33.53
2017-08-29T16:26:36.898Z,33.49
2017-08-29T16:31:39.249Z,33.43
2017-08-29T16:36:41.175Z,33.18
2017-08-29T16:41:43.230Z,33.11
2017-08-29T16:46:45.304Z,32.90
2017-08-29T16:51:47.250Z,32.74
2017-08-29T16:56:51.343Z,32.62
2017-08-29T17:01:53.311Z,32.47
2017-08-29T17:06:55.303Z,32.29
2017-08-29T17:11:57.292Z,32.14
2017-08-29T17:16:59.265Z,32.01
2017-08-29T17:22:01.601Z,31.87
2017-08-29T17:27:04.028Z,31.72
2017-08-29T17:32:05.972Z,31.51
2017-08-29T17:37:10.043Z,31.26
2017-08-29T17:42:12.198Z,31.05
2017-08-29T17:47:14.397Z,30.78
2017-08-29T17:52:16.333Z,30.47
2017-08-29T17:57:18.523Z,30.06
2017-08-29T18:02:20.948Z,29.73
2017-08-29T18:07:23.539Z,29.49
2017-08-29T18:12:25.843Z,29.27
2017-08-29T18:17:28.118Z,29.12
2017-08-29T18:22:30.477Z,28.96
2017-08-29T18:27:36.116Z,28.80
2017-08-29T18:32:38.508Z,28.66
2017-08-29T18:37:40.835Z,28.63
2017-08-29T18:42:43.348Z,28.49
2017-08-29T18:47:45.456Z,28.38
2017-08-29T18:52:47.693Z,28.21
2017-08-29T18:57:49.710Z,28.04
2017-08-29T19:02:51.705Z,27.93
2017-08-29T19:07:54.928Z,27.84
2017-08-29T19:12:58.010Z,27.71
2017-08-29T19:18:01.368Z,27.62
2017-08-29T19:23:04.669Z,27.47
2017-08-29T19:28:07.912Z,27.25
2017-08-29T19:33:11.036Z,27.18
2017-08-29T19:38:14.256Z,27.05
2017-08-29T19:43:17.494Z,26.95
2017-08-29T19:48:21.619Z,26.73
2017-08-29T19:53:24.932Z,26.78
2017-08-29T19:58:35.758Z,26.77
2017-08-29T20:03:37.931Z,26.69
2017-08-29T20:08:40.431Z,26.57
2017-08-29T20:13:42.550Z,26.47
2017-08-29T20:18:45.198Z,26.38
2017-08-29T20:23:47.275Z,26.30
2017-08-29T20:28:49.775Z,26.10
2017-08-29T20:33:51.840Z,26.02
2017-08-29T20:38:55.837Z,25.94
2017-08-29T20:43:58.024Z,25.86
2017-08-29T20:49:01.876Z,25.82
2017-08-29T20:54:04.264Z,25.73
2017-08-29T20:59:06.386Z,25.63
2017-08-29T21:04:08.322Z,25.47
2017-08-29T21:09:10.254Z,25.38
2017-08-29T21:14:12.202Z,25.35
2017-08-29T21:19:14.280Z,25.27
2017-08-29T21:24:16.329Z,25.19
2017-08-29T21:29:18.323Z,25.15
2017-08-29T21:34:20.326Z,25.17
2017-08-29T21:39:22.251Z,25.08
2017-08-29T21:44:24.163Z,25.04
2017-08-29T21:49:26.081Z,24.96
2017-08-29T21:54:28.068Z,24.84
2017-08-29T21:59:30.048Z,24.72
2017-08-29T22:04:32.066Z,24.61
2017-08-29T22:09:34.217Z,24.48
2017-08-29T22:14:36.594Z,24.35
2017-08-29T22:19:38.595Z,24.49
2017-08-29T22:24:40.573Z,24.53
2017-08-29T22:29:44.142Z,24.49
2017-08-29T22:34:46.143Z,24.43
2017-08-29T22:39:48.085Z,24.35
2017-08-29T22:44:50.185Z,24.35
2017-08-29T22:49:52.178Z,24.22
2017-08-29T22:54:54.704Z,24.24
2017-08-29T22:59:57.322Z,24.18
2017-08-29T23:04:59.733Z,24.10
2017-08-29T23:10:02.413Z,23.97
2017-08-29T23:15:05.190Z,23.99
2017-08-29T23:20:07.749Z,24.05
2017-08-29T23:25:09.686Z,23.98
2017-08-29T23:30:11.641Z,23.91
2017-08-29T23:35:13.569Z,23.93
2017-08-29T23:40:17.092Z,23.91
2017-08-29T23:45:19.676Z,23.88
2017-08-29T23:50:23.483Z,23.91
2017-08-29T23:55:26.169Z,23.88
